MBR | MBRSubmissionSummary
Emblem for the Federal Energy Regulatory Commission

MBR Portal

Federal Energy Regulatory Commission

FERC.GOV    LOGIN    
Home
Create GID
Create Gen Assets
Submit MBR XML
MBR Reports
Documents and Links

Submission Summary











 

Submission ID Submission
Date
Submission
Status Name
File Name Submitter Filed Date Submission
Source Name
CID Organization
Name
Download XML
1599844 2/19/2025 Final XML_219_P_20250219144203.xml Allison E.S. Salvia 2/19/2025 eFiling C012459 Gridmatic Panicum LLC XML_219_P_20250219144203.xml
1599820 2/19/2025 Final XML_105_P_20250219141016.xml William Borders, ESQ 2/19/2025 eFiling C012478 Cadence Solar Energy LLC XML_105_P_20250219141016.xml
1599818 2/19/2025 Final XML_106_P_20250219140757.xml William Borders, ESQ 2/19/2025 eFiling C012477 Trade Post Solar LLC XML_106_P_20250219140757.xml
1599785 2/19/2025 Final mbrxml_C004592_1739995608167.xml Douglas Darrah 2/19/2025 eFiling C004592 Spring Canyon Energy III LLC mbrxml_C004592_1739995608167.xml
1599782 2/19/2025 Final mbrxml_C002435_1739995362102.xml Douglas Darrah 2/19/2025 eFiling C002435 Solar Roadrunner LLC mbrxml_C002435_1739995362102.xml
1599776 2/19/2025 Final mbrxml_C003174_1739994969545.xml Douglas Darrah 2/19/2025 eFiling C003174 Solar Borrego I LLC mbrxml_C003174_1739994969545.xml
1599762 2/19/2025 Final mbrxml_C000818_1739993885043.xml Douglas Darrah 2/19/2025 eFiling C000818 Solar Blythe LLC mbrxml_C000818_1739993885043.xml
1599756 2/19/2025 Final mbrxml_C003105_1739993224605.xml Douglas Darrah 2/19/2025 eFiling C003105 Solar Avra Valley LLC mbrxml_C003105_1739993224605.xml
1599751 2/19/2025 Final mbrxml_C003022_1739992268533.xml Douglas Darrah 2/19/2025 eFiling C003022 Solar Alpine LLC mbrxml_C003022_1739992268533.xml
1599750 2/19/2025 Final mbrxml_C001403_1739991977725.xml Douglas Darrah 2/19/2025 eFiling C001403 Sleeping Bear, LLC mbrxml_C001403_1739991977725.xml
1599748 2/19/2025 Final mbrxml_C001401_1739991652860.xml Douglas Darrah 2/19/2025 eFiling C001401 San Juan Mesa Wind Project, LLC mbrxml_C001401_1739991652860.xml
1599738 2/19/2025 Final mbrxml_C010604_1739990479709.xml Douglas Darrah 2/19/2025 eFiling C010604 Rattlesnake Flat, LLC mbrxml_C010604_1739990479709.xml
1599737 2/19/2025 Final mbrxml_C002544_1739990101832.xml Douglas Darrah 2/19/2025 eFiling C002544 Pinnacle Wind, LLC mbrxml_C002544_1739990101832.xml
1599683 2/19/2025 Final ESG_Upload-86.xml Matthew T. Rick 2/19/2025 eFiling C012527 Second Imperial Geothermal Company LLC ESG_Upload-86.xml
1599660 2/19/2025 Final Test-190_Filing_Entity_02192536.xml Christopher J. Polito 2/19/2025 eFiling C001806 Morgan Stanley Capital Group Inc. Test-190_Filing_Entity_02192536.xml
1599658 2/19/2025 Final Test-513_Filing_Entity_02192524.xml Terence T. Healey 2/19/2025 eFiling C012324 Energy Prepay IV, LLC Test-513_Filing_Entity_02192524.xml
1599657 2/19/2025 Final Test-199_Filing_Entity_02192523.xml Christopher J. Polito 2/19/2025 eFiling C001810 Morgan Stanley Energy Structuring, L.L.C Test-199_Filing_Entity_02192523.xml
1599637 2/18/2025 Final Test-84_Filing_Entity_02182559.xml Stephanie Jones 2/18/2025 eFiling C000329 Calpine Energy Services, L.P. Test-84_Filing_Entity_02182559.xml
1599628 2/18/2025 Final Test-125_Filing_Entity_02182546.xml Stephanie Jones 2/18/2025 eFiling C003151 Russell City Energy Company, LLC Test-125_Filing_Entity_02182546.xml
1599616 2/18/2025 Final Test-129_Filing_Entity_02182540.xml Stephanie Jones 2/18/2025 eFiling C000364 Zion Energy LLC Test-129_Filing_Entity_02182540.xml
1599613 2/18/2025 Final Test-128_Filing_Entity_02182539.xml Stephanie Jones 2/18/2025 eFiling C003485 Westbrook Energy Center, LLC Test-128_Filing_Entity_02182539.xml
1599611 2/18/2025 Final Test-127_Filing_Entity_02182538.xml Stephanie Jones 2/18/2025 eFiling C000363 TBG Cogen Partners Test-127_Filing_Entity_02182538.xml
1599608 2/18/2025 Final Test-126_Filing_Entity_02182537.xml Stephanie Jones 2/18/2025 eFiling C000362 South Point Energy Center, LLC Test-126_Filing_Entity_02182537.xml
1599604 2/18/2025 Final Test-123_Filing_Entity_02182534.xml Stephanie Jones 2/18/2025 eFiling C000358 Pine Bluff Energy, LLC Test-123_Filing_Entity_02182534.xml
1599602 2/18/2025 Final Test-122_Filing_Entity_02182533.xml Stephanie Jones 2/18/2025 eFiling C000356 Pastoria Energy Facility L.L.C. Test-122_Filing_Entity_02182533.xml
1599600 2/18/2025 Final Test-121_Filing_Entity_02182533.xml Stephanie Jones 2/18/2025 eFiling C000355 Otay Mesa Energy Center, LLC Test-121_Filing_Entity_02182533.xml
1599599 2/18/2025 Final Test-115_Filing_Entity_02182532.xml Stephanie Jones 2/18/2025 eFiling C000351 Metcalf Energy Center, LLC Test-115_Filing_Entity_02182532.xml
1599597 2/18/2025 Final Test-114_Filing_Entity_02182531.xml Stephanie Jones 2/18/2025 eFiling C000366 Los Medanos Energy Center, LLC Test-114_Filing_Entity_02182531.xml
1599594 2/18/2025 Final Test-113_Filing_Entity_02182530.xml Stephanie Jones 2/18/2025 eFiling C000347 Los Esteros Critical Energy Facility, LL Test-113_Filing_Entity_02182530.xml
1599591 2/18/2025 Final Test-112_Filing_Entity_02182529.xml Stephanie Jones 2/18/2025 eFiling C000346 KIAC Partners Test-112_Filing_Entity_02182529.xml
1599586 2/18/2025 Final Test-110_Filing_Entity_02182528.xml Stephanie Jones 2/18/2025 eFiling C000345 Hermiston Power, LLC Test-110_Filing_Entity_02182528.xml
1599584 2/18/2025 Final Test-109_Filing_Entity_02182527.xml Stephanie Jones 2/18/2025 eFiling C002081 Granite Ridge Energy, LLC Test-109_Filing_Entity_02182527.xml
1599581 2/18/2025 Final Test-108_Filing_Entity_02182526.xml Stephanie Jones 2/18/2025 eFiling C000344 Goose Haven Energy Center, LLC Test-108_Filing_Entity_02182526.xml
1599578 2/18/2025 Final XML_3062_P_20250218142525.xml Ashley A. Dougherty 2/18/2025 eFiling C010341 MD Solar 2, LLC XML_3062_P_20250218142525.xml
1599577 2/18/2025 Final Test-107_Filing_Entity_02182525.xml Stephanie Jones 2/18/2025 eFiling C000249 Gilroy Energy Center, LLC Test-107_Filing_Entity_02182525.xml
1599572 2/18/2025 Final Test-106_Filing_Entity_02182524.xml Stephanie Jones 2/18/2025 eFiling C000245 Geysers Power Company, LLC Test-106_Filing_Entity_02182524.xml
1599569 2/18/2025 Final Test-105_Filing_Entity_02182523.xml Stephanie Jones 2/18/2025 eFiling C000343 Delta Energy Center, LLC Test-105_Filing_Entity_02182523.xml
1599567 2/18/2025 Final Test-104_Filing_Entity_02182523.xml Stephanie Jones 2/18/2025 eFiling C000341 Creed Energy Center, LLC Test-104_Filing_Entity_02182523.xml
1599565 2/18/2025 Final Test-103_Filing_Entity_02182522.xml Stephanie Jones 2/18/2025 eFiling C000339 CPN Bethpage 3rd Turbine, Inc. Test-103_Filing_Entity_02182522.xml
1599563 2/18/2025 Final Test-97_Filing_Entity_02182522.xml Stephanie Jones 2/18/2025 eFiling C003486 CCFC Sutter Energy, LLC Test-97_Filing_Entity_02182522.xml
1599557 2/18/2025 Final Test-93_Filing_Entity_02182520.xml Stephanie Jones 2/18/2025 eFiling C001372 Calpine New Jersey Generation, LLC Test-93_Filing_Entity_02182520.xml
1599554 2/18/2025 Final Test-90_Filing_Entity_02182519.xml Stephanie Jones 2/18/2025 eFiling C008938 Calpine Mid-Merit II, LLC Test-90_Filing_Entity_02182519.xml
1599551 2/18/2025 Final Test-89_Filing_Entity_02182518.xml Stephanie Jones 2/18/2025 eFiling C001375 Calpine Mid Merit, LLC Test-89_Filing_Entity_02182518.xml
1599549 2/18/2025 Final Test-91_Filing_Entity_02182517.xml Stephanie Jones 2/18/2025 eFiling C001376 Calpine Mid-Atlantic Generation, LLC Test-91_Filing_Entity_02182517.xml
1599545 2/18/2025 Final Test-88_Filing_Entity_02182516.xml Stephanie Jones 2/18/2025 eFiling C010194 Calpine King City Cogen, LLC Test-88_Filing_Entity_02182516.xml
1599543 2/18/2025 Final Test-87_Filing_Entity_02182515.xml Stephanie Jones 2/18/2025 eFiling C000330 Calpine Gilroy Cogen, L.P. Test-87_Filing_Entity_02182515.xml
1599541 2/18/2025 Final Test-83_Filing_Entity_02182514.xml Stephanie Jones 2/18/2025 eFiling C000328 Calpine Construction Finance Company, L. Test-83_Filing_Entity_02182514.xml
1599538 2/18/2025 Final Test-86_Filing_Entity_02182513.xml Stephanie Jones 2/18/2025 eFiling C000335 Calpine Fore River Energy Center, LLC Test-86_Filing_Entity_02182513.xml
1599535 2/18/2025 Final Test-85_Filing_Entity_02182512.xml Stephanie Jones 2/18/2025 eFiling C002017 Calpine Energy Solutions, LLC Test-85_Filing_Entity_02182512.xml
1599533 2/18/2025 Final Test-157_Filing_Entity_02182511.xml Stephanie Jones 2/18/2025 eFiling C001373 Calpine Bethlehem, LLC Test-157_Filing_Entity_02182511.xml

Security and Privacy Statement
For any issues regarding MBR System, please contact MBR support   Please include a current e-mail address. Last Modified: 1/29/2026 5:14:48 PM      ver.1.60

This site contains information collections that are subject to the Paperwork Reduction Act (PRA). Among other things, the PRA requires FERC to provide you with an estimate of the average burden of completing the information on this site. Comments regarding the burden estimate or any other aspect of these forms can be directed to FERC's Information Collection Branch at DataClearance@ferc.gov.
In addition, you are not required to respond to any collection of information unless it displays a currently valid Office of Management and Budget (OMB) control number. FERC provides the OMB Control Numbers of the information collections on this site at www.ferc.gov/information-collections.